createdAt,value
2022-08-17T00:00:34.246Z,98522.00
2022-08-17T00:03:09.158Z,98521.38
2022-08-17T00:05:43.820Z,98519.09
2022-08-17T00:08:12.937Z,98512.91
2022-08-17T00:10:41.903Z,98515.56
2022-08-17T00:13:12.285Z,98507.72
2022-08-17T00:15:40.128Z,98509.13
2022-08-17T00:19:01.091Z,98520.09
2022-08-17T00:20:58.795Z,98523.69
2022-08-17T00:23:26.860Z,98518.97
2022-08-17T00:25:55.230Z,98518.19
2022-08-17T00:28:23.359Z,98515.38
2022-08-17T00:30:53.679Z,98518.28
2022-08-17T00:33:25.557Z,98516.72
2022-08-17T00:35:54.918Z,98511.06
2022-08-17T00:38:25.647Z,98508.66
2022-08-17T00:40:59.183Z,98508.84
2022-08-17T00:43:31.885Z,98509.31
2022-08-17T00:46:00.779Z,98508.41
2022-08-17T00:48:30.767Z,98503.03
2022-08-17T00:51:08.210Z,98500.59
2022-08-17T00:53:40.267Z,98500.03
2022-08-17T00:56:11.875Z,98499.47
2022-08-17T00:58:39.961Z,98499.78
2022-08-17T01:01:11.546Z,98508.78
2022-08-17T01:03:40.448Z,98509.00
2022-08-17T01:06:09.400Z,98504.13
2022-08-17T01:08:40.572Z,98496.66
2022-08-17T01:11:09.056Z,98498.91
2022-08-17T01:13:42.000Z,98496.63
2022-08-17T01:16:17.014Z,98497.03
2022-08-17T01:18:47.005Z,98499.47
2022-08-17T01:21:33.244Z,98490.78
2022-08-17T01:24:03.149Z,98482.03
2022-08-17T01:26:33.337Z,98486.41
2022-08-17T01:29:02.690Z,98484.84
2022-08-17T01:31:35.994Z,98487.06
2022-08-17T01:34:08.709Z,98482.84
2022-08-17T01:36:36.739Z,98481.03
2022-08-17T01:39:07.655Z,98491.03
2022-08-17T01:41:38.073Z,98492.38
2022-08-17T01:44:08.466Z,98500.44
2022-08-17T01:46:38.681Z,98493.75
2022-08-17T01:49:08.346Z,98503.91
2022-08-17T01:51:36.199Z,98496.91
2022-08-17T01:54:09.911Z,98500.88
2022-08-17T01:56:41.201Z,98502.38
2022-08-17T01:59:09.322Z,98504.31
2022-08-17T02:01:38.149Z,98506.44
2022-08-17T02:04:08.436Z,98505.66
2022-08-17T02:06:53.715Z,98500.41
2022-08-17T02:09:25.713Z,98509.75
2022-08-17T02:11:54.576Z,98503.53
2022-08-17T02:14:22.769Z,98491.66
2022-08-17T02:16:50.750Z,98493.63
2022-08-17T02:19:19.103Z,98495.66
2022-08-17T02:21:49.653Z,98492.63
2022-08-17T02:25:00.619Z,98497.19
2022-08-17T02:27:11.169Z,98495.16
2022-08-17T02:29:39.420Z,98497.97
2022-08-17T02:32:07.827Z,98497.59
2022-08-17T02:34:35.825Z,98489.50
2022-08-17T02:37:03.714Z,98488.53
2022-08-17T02:39:31.794Z,98490.88
2022-08-17T02:42:02.501Z,98496.13
2022-08-17T02:44:39.149Z,98491.16
2022-08-17T02:47:09.130Z,98486.03
2022-08-17T02:49:37.735Z,98480.75
2022-08-17T02:52:08.432Z,98473.59
2022-08-17T02:54:40.659Z,98480.47
2022-08-17T02:57:10.485Z,98480.19
2022-08-17T02:59:39.967Z,98477.75
2022-08-17T03:02:10.894Z,98477.69
2022-08-17T03:04:39.239Z,98471.56
2022-08-17T03:07:07.508Z,98478.69
2022-08-17T03:09:35.692Z,98488.97
2022-08-17T03:12:08.253Z,98479.63
2022-08-17T03:14:41.472Z,98478.28
2022-08-17T03:17:17.136Z,98477.00
2022-08-17T03:19:45.439Z,98468.16
2022-08-17T03:22:36.641Z,98474.47
2022-08-17T03:25:01.346Z,98479.53
2022-08-17T03:27:30.074Z,98472.66
2022-08-17T03:29:59.541Z,98487.91
2022-08-17T03:32:27.431Z,98488.28
2022-08-17T03:34:59.338Z,98490.25
2022-08-17T03:37:27.589Z,98500.25
2022-08-17T03:39:55.757Z,98502.97
2022-08-17T03:42:32.413Z,98499.75
2022-08-17T03:45:03.257Z,98493.81
2022-08-17T03:47:48.469Z,98497.72
2022-08-17T03:50:32.338Z,98497.88
2022-08-17T03:53:18.963Z,98494.84
2022-08-17T03:56:04.271Z,98499.44
2022-08-17T03:58:32.137Z,98491.25
2022-08-17T04:01:02.609Z,98504.50
2022-08-17T04:03:30.355Z,98500.59
2022-08-17T04:05:58.159Z,98497.38
2022-08-17T04:08:26.058Z,98504.25
2022-08-17T04:10:53.906Z,98512.22
2022-08-17T04:13:24.235Z,98504.50
2022-08-17T04:15:53.333Z,98503.59
2022-08-17T04:18:22.623Z,98502.53
2022-08-17T04:20:50.567Z,98512.81
2022-08-17T04:23:19.958Z,98501.22
2022-08-17T04:25:50.013Z,98506.97
2022-08-17T04:28:18.955Z,98515.97
2022-08-17T04:30:48.829Z,98515.28
2022-08-17T04:33:19.848Z,98517.00
2022-08-17T04:35:51.097Z,98519.75
2022-08-17T04:38:22.711Z,98518.22
2022-08-17T04:41:08.678Z,98513.63
2022-08-17T04:43:37.941Z,98510.66
2022-08-17T04:46:08.369Z,98508.31
2022-08-17T04:48:38.716Z,98517.69
2022-08-17T04:51:10.742Z,98522.38
2022-08-17T04:53:40.054Z,98524.97
2022-08-17T04:56:11.589Z,98533.22
2022-08-17T04:58:39.792Z,98530.53
2022-08-17T05:01:08.198Z,98537.03
2022-08-17T05:03:36.743Z,98543.88
2022-08-17T05:06:05.246Z,98547.28
2022-08-17T05:08:34.763Z,98549.34
2022-08-17T05:11:03.116Z,98550.22
2022-08-17T05:13:31.071Z,98542.47
2022-08-17T05:16:04.197Z,98539.63
2022-08-17T05:18:32.564Z,98543.88
2022-08-17T05:21:01.339Z,98547.69
2022-08-17T05:23:42.958Z,98553.78
2022-08-17T05:26:25.819Z,98545.56
2022-08-17T05:28:55.127Z,98541.88
2022-08-17T05:31:25.794Z,98543.03
2022-08-17T05:33:54.405Z,98545.44
2022-08-17T05:36:41.883Z,98540.00
2022-08-17T05:39:15.830Z,98551.97
2022-08-17T05:41:48.630Z,98543.63
2022-08-17T05:44:17.772Z,98556.34
2022-08-17T05:46:50.541Z,98543.63
2022-08-17T05:49:23.522Z,98552.09
2022-08-17T05:52:14.584Z,98543.41
2022-08-17T05:55:14.902Z,98551.19
2022-08-17T05:57:56.041Z,98542.88
2022-08-17T06:00:30.605Z,98550.22
2022-08-17T06:03:26.280Z,98541.69
2022-08-17T06:06:31.882Z,98545.75
2022-08-17T06:09:14.185Z,98553.59
2022-08-17T06:11:53.503Z,98548.94
2022-08-17T06:14:35.005Z,98551.88
2022-08-17T06:17:07.250Z,98548.34
2022-08-17T06:19:41.733Z,98550.97
2022-08-17T06:22:13.667Z,98548.28
2022-08-17T06:24:47.705Z,98541.28
2022-08-17T06:27:24.590Z,98530.00
2022-08-17T06:29:59.121Z,98527.03
2022-08-17T06:32:27.449Z,98536.56
2022-08-17T06:34:55.532Z,98545.19
2022-08-17T06:37:39.180Z,98543.88
2022-08-17T06:40:22.976Z,98547.84
2022-08-17T06:43:07.373Z,98551.16
2022-08-17T06:45:43.266Z,98547.59
2022-08-17T06:48:16.525Z,98548.28
2022-08-17T06:50:50.462Z,98554.34
2022-08-17T06:53:23.704Z,98557.22
2022-08-17T06:55:58.999Z,98563.16
2022-08-17T06:58:31.364Z,98559.91
2022-08-17T07:01:07.292Z,98561.72
2022-08-17T07:03:39.287Z,98565.84
2022-08-17T07:06:12.417Z,98578.25
2022-08-17T07:08:50.319Z,98581.31
2022-08-17T07:11:22.003Z,98574.84
2022-08-17T07:14:05.401Z,98588.25
2022-08-17T07:16:41.095Z,98585.31
2022-08-17T07:19:11.013Z,98585.84
2022-08-17T07:21:50.148Z,98604.44
2022-08-17T07:24:31.018Z,98612.38
2022-08-17T07:27:12.167Z,98616.69
2022-08-17T07:29:44.162Z,98603.81
2022-08-17T07:32:17.913Z,98615.28
2022-08-17T07:35:02.117Z,98605.22
2022-08-17T07:37:34.533Z,98608.94
2022-08-17T07:40:17.321Z,98601.56
2022-08-17T07:43:02.596Z,98597.91
2022-08-17T07:45:50.905Z,98612.50
2022-08-17T07:48:27.064Z,98610.22
2022-08-17T07:50:55.893Z,98613.50
2022-08-17T07:53:26.935Z,98616.97
2022-08-17T07:55:55.352Z,98626.44
2022-08-17T07:58:26.045Z,98615.25
2022-08-17T08:01:09.068Z,98613.00
2022-08-17T08:03:44.279Z,98606.97
2022-08-17T08:06:21.619Z,98605.28
2022-08-17T08:08:53.326Z,98599.34
2022-08-17T08:11:31.799Z,98592.72
2022-08-17T08:14:28.691Z,98593.72
2022-08-17T08:16:59.881Z,98580.22
2022-08-17T08:19:31.017Z,98587.63
2022-08-17T08:22:05.716Z,98586.19
2022-08-17T08:24:50.204Z,98597.69
2022-08-17T08:27:29.077Z,98601.50
2022-08-17T08:30:07.017Z,98593.69
2022-08-17T08:32:50.375Z,98582.31
2022-08-17T08:35:30.968Z,98577.50
2022-08-17T08:38:08.362Z,98575.16
2022-08-17T08:41:04.142Z,98571.91
2022-08-17T08:43:41.496Z,98572.03
2022-08-17T08:46:19.819Z,98579.31
2022-08-17T08:49:38.994Z,98584.25
2022-08-17T08:52:21.719Z,98582.69
2022-08-17T08:54:59.371Z,98574.22
2022-08-17T08:57:34.514Z,98572.69
2022-08-17T09:00:15.165Z,98571.03
2022-08-17T09:03:16.278Z,98583.50
2022-08-17T09:06:33.296Z,98586.22
2022-08-17T09:09:09.177Z,98581.50
2022-08-17T09:12:01.140Z,98580.13
2022-08-17T09:14:46.812Z,98576.63
2022-08-17T09:17:20.247Z,98579.84
2022-08-17T09:19:55.853Z,98573.22
2022-08-17T09:22:33.908Z,98572.06
2022-08-17T09:25:09.976Z,98570.38
2022-08-17T09:27:49.058Z,98568.94
2022-08-17T09:30:18.336Z,98571.66
2022-08-17T09:32:50.017Z,98572.22
2022-08-17T09:35:22.824Z,98569.63
2022-08-17T09:37:59.505Z,98571.44
2022-08-17T09:40:35.026Z,98564.81
2022-08-17T09:43:09.054Z,98567.25
2022-08-17T09:45:43.629Z,98563.47
2022-08-17T09:48:18.888Z,98566.94
2022-08-17T09:51:05.423Z,98567.25
2022-08-17T09:53:36.992Z,98566.47
2022-08-17T09:56:21.829Z,98569.56
2022-08-17T09:59:04.475Z,98568.00
2022-08-17T10:01:39.930Z,98571.91
2022-08-17T10:04:29.328Z,98571.03
2022-08-17T10:07:03.025Z,98574.91
2022-08-17T10:09:44.309Z,98575.28
2022-08-17T10:12:29.848Z,98573.66
2022-08-17T10:15:13.918Z,98569.97
2022-08-17T10:17:55.516Z,98584.19
2022-08-17T10:20:29.553Z,98567.44
2022-08-17T10:23:19.865Z,98565.56
2022-08-17T10:26:20.421Z,98565.72
2022-08-17T10:28:54.503Z,98584.63
2022-08-17T10:31:34.719Z,98582.66
2022-08-17T10:34:26.027Z,98577.56
2022-08-17T10:37:05.782Z,98577.22
2022-08-17T10:39:51.822Z,98579.75
2022-08-17T10:42:30.834Z,98577.44
2022-08-17T10:45:07.760Z,98581.94
2022-08-17T10:48:04.739Z,98575.66
2022-08-17T10:51:08.704Z,98570.16
2022-08-17T10:54:01.731Z,98579.78
2022-08-17T10:56:47.016Z,98573.34
2022-08-17T10:59:50.705Z,98578.47
2022-08-17T11:02:26.216Z,98578.34
2022-08-17T11:05:20.661Z,98579.25
2022-08-17T11:08:23.458Z,98577.88
2022-08-17T11:11:07.763Z,98573.81
2022-08-17T11:13:45.888Z,98582.19
2022-08-17T11:16:45.612Z,98576.59
2022-08-17T11:19:46.964Z,98578.34
2022-08-17T11:22:36.019Z,98578.34
2022-08-17T11:25:26.300Z,98572.03
2022-08-17T11:28:07.747Z,98568.03
2022-08-17T11:30:47.050Z,98572.75
2022-08-17T11:33:54.256Z,98574.84
2022-08-17T11:36:38.068Z,98575.66
2022-08-17T11:39:23.780Z,98576.19
2022-08-17T11:42:02.443Z,98582.38
2022-08-17T11:44:40.264Z,98572.69
2022-08-17T11:47:35.365Z,98565.72
2022-08-17T11:51:02.730Z,98567.47
2022-08-17T11:54:30.508Z,98578.41
2022-08-17T11:56:51.952Z,98564.75
2022-08-17T11:59:58.723Z,98568.69
2022-08-17T12:02:48.538Z,98569.81
2022-08-17T12:05:32.325Z,98567.44
2022-08-17T12:08:11.959Z,98566.28
2022-08-17T12:10:54.874Z,98578.47
2022-08-17T12:13:30.591Z,98587.16
2022-08-17T12:16:07.372Z,98575.78
2022-08-17T12:18:39.454Z,98579.31
2022-08-17T12:21:23.247Z,98574.88
2022-08-17T12:23:58.325Z,98585.63
2022-08-17T12:26:31.269Z,98592.19
2022-08-17T12:29:02.205Z,98600.22
2022-08-17T12:31:36.049Z,98588.63
2022-08-17T12:34:05.654Z,98586.94
2022-08-17T12:36:34.688Z,98598.91
2022-08-17T12:39:13.074Z,98599.88
2022-08-17T12:41:47.223Z,98606.22
2022-08-17T12:44:17.687Z,98605.25
2022-08-17T12:47:00.395Z,98607.84
2022-08-17T12:49:32.623Z,98613.41
2022-08-17T12:52:10.204Z,98616.41
2022-08-17T12:54:46.693Z,98629.53
2022-08-17T12:57:20.313Z,98621.03
2022-08-17T12:59:52.127Z,98627.47
2022-08-17T13:02:30.915Z,98624.94
2022-08-17T13:05:02.123Z,98627.94
2022-08-17T13:07:34.071Z,98622.97
2022-08-17T13:10:02.495Z,98627.94
2022-08-17T13:12:34.501Z,98633.75
2022-08-17T13:15:02.852Z,98632.44
2022-08-17T13:17:34.642Z,98629.69
2022-08-17T13:20:04.688Z,98628.16
2022-08-17T13:22:33.653Z,98627.81
2022-08-17T13:25:05.549Z,98626.78
2022-08-17T13:27:35.093Z,98620.84
2022-08-17T13:30:08.734Z,98628.34
2022-08-17T13:32:44.130Z,98631.09
2022-08-17T13:35:39.242Z,98617.66
2022-08-17T13:38:10.104Z,98618.25
2022-08-17T13:40:42.675Z,98621.66
2022-08-17T13:43:13.013Z,98617.66
2022-08-17T13:46:08.152Z,98628.00
2022-08-17T13:48:36.691Z,98619.19
2022-08-17T13:51:15.493Z,98622.19
2022-08-17T13:54:07.148Z,98620.31
2022-08-17T13:56:41.596Z,98611.50
2022-08-17T13:59:15.743Z,98612.69
2022-08-17T14:01:51.116Z,98607.50
2022-08-17T14:04:23.683Z,98598.84
2022-08-17T14:06:55.201Z,98603.72
2022-08-17T14:09:25.367Z,98597.03
2022-08-17T14:11:54.014Z,98583.38
2022-08-17T14:14:24.151Z,98589.84
2022-08-17T14:16:52.183Z,98580.16
2022-08-17T14:19:22.066Z,98589.75
2022-08-17T14:21:51.327Z,98581.84
2022-08-17T14:24:24.268Z,98570.00
2022-08-17T14:26:53.422Z,98570.44
2022-08-17T14:29:23.674Z,98572.47
2022-08-17T14:31:54.149Z,98574.97
2022-08-17T14:34:23.329Z,98578.81
2022-08-17T14:36:52.728Z,98580.75
2022-08-17T14:39:21.279Z,98582.53
2022-08-17T14:41:49.722Z,98568.03
2022-08-17T14:44:17.862Z,98580.16
2022-08-17T14:46:47.977Z,98558.13
2022-08-17T14:49:16.311Z,98561.56
2022-08-17T14:51:44.714Z,98543.28
2022-08-17T14:54:13.130Z,98531.06
2022-08-17T14:57:23.110Z,98530.28
2022-08-17T14:59:51.766Z,98524.94
2022-08-17T15:02:29.767Z,98513.81
2022-08-17T15:05:03.101Z,98511.31
2022-08-17T15:07:31.739Z,98513.22
2022-08-17T15:10:01.515Z,98507.09
2022-08-17T15:12:33.110Z,98514.56
2022-08-17T15:15:01.984Z,98509.91
2022-08-17T15:17:44.332Z,98511.81
2022-08-17T15:20:16.416Z,98501.56
2022-08-17T15:22:45.761Z,98501.75
2022-08-17T15:25:14.262Z,98499.59
2022-08-17T15:27:42.260Z,98501.25
2022-08-17T15:30:11.742Z,98502.09
2022-08-17T15:32:45.866Z,98502.22
2022-08-17T15:35:27.584Z,98511.41
2022-08-17T15:37:58.456Z,98508.81
2022-08-17T15:40:26.855Z,98506.09
2022-08-17T15:42:55.117Z,98508.19
2022-08-17T15:45:26.573Z,98507.81
2022-08-17T15:47:55.968Z,98504.50
2022-08-17T15:50:23.963Z,98507.44
2022-08-17T15:53:00.009Z,98500.16
2022-08-17T15:55:29.952Z,98491.75
2022-08-17T15:57:57.738Z,98488.06
2022-08-17T16:00:26.059Z,98490.03
2022-08-17T16:03:44.715Z,98496.34
2022-08-17T16:05:46.402Z,98488.59
2022-08-17T16:08:20.666Z,98482.38
2022-08-17T16:10:48.754Z,98489.41
2022-08-17T16:13:18.080Z,98490.97
2022-08-17T16:15:52.553Z,98497.50
2022-08-17T16:18:31.086Z,98493.13
2022-08-17T16:21:21.536Z,98510.84
2022-08-17T16:23:51.467Z,98501.81
2022-08-17T16:26:19.811Z,98504.22
2022-08-17T16:28:47.665Z,98507.34
2022-08-17T16:31:15.982Z,98502.13
2022-08-17T16:34:03.784Z,98501.81
2022-08-17T16:36:33.210Z,98494.66
2022-08-17T16:39:01.474Z,98492.22
2022-08-17T16:41:45.111Z,98499.56
2022-08-17T16:44:15.355Z,98487.44
2022-08-17T16:46:45.421Z,98488.59
2022-08-17T16:49:35.447Z,98486.44
2022-08-17T16:52:07.436Z,98488.88
2022-08-17T16:54:36.239Z,98486.75
2022-08-17T16:57:05.587Z,98482.09
2022-08-17T16:59:42.120Z,98489.72
2022-08-17T17:02:15.355Z,98487.19
2022-08-17T17:04:47.490Z,98480.72
2022-08-17T17:07:34.919Z,98475.25
2022-08-17T17:10:08.643Z,98478.56
2022-08-17T17:13:03.943Z,98485.31
2022-08-17T17:15:34.813Z,98486.44
2022-08-17T17:18:06.982Z,98487.59
2022-08-17T17:20:45.837Z,98474.00
2022-08-17T17:23:26.071Z,98468.72
2022-08-17T17:26:04.036Z,98471.63
2022-08-17T17:28:43.321Z,98470.84
2022-08-17T17:31:16.950Z,98477.72
2022-08-17T17:33:48.276Z,98474.63
2022-08-17T17:36:26.065Z,98472.75
2022-08-17T17:38:59.235Z,98470.47
2022-08-17T17:41:34.046Z,98472.16
2022-08-17T17:44:07.515Z,98466.25
2022-08-17T17:46:39.799Z,98475.06
2022-08-17T17:49:10.135Z,98478.31
2022-08-17T17:52:06.258Z,98487.13
2022-08-17T17:54:57.795Z,98481.88
2022-08-17T17:57:36.218Z,98475.34
2022-08-17T18:00:10.041Z,98478.19
2022-08-17T18:02:52.577Z,98477.66
2022-08-17T18:05:34.206Z,98475.75
2022-08-17T18:08:15.593Z,98471.69
2022-08-17T18:10:51.202Z,98467.81
2022-08-17T18:13:29.056Z,98461.44
2022-08-17T18:16:00.733Z,98464.41
2022-08-17T18:18:38.596Z,98463.00
2022-08-17T18:21:15.786Z,98465.59
2022-08-17T18:23:54.573Z,98465.78
2022-08-17T18:26:45.000Z,98461.53
2022-08-17T18:29:25.479Z,98460.56
2022-08-17T18:32:23.706Z,98464.44
2022-08-17T18:34:54.258Z,98462.88
2022-08-17T18:37:33.742Z,98460.13
2022-08-17T18:40:24.665Z,98463.28
2022-08-17T18:43:02.785Z,98460.66
2022-08-17T18:45:41.927Z,98474.28
2022-08-17T18:48:30.777Z,98478.13
2022-08-17T18:51:05.016Z,98462.00
2022-08-17T18:53:38.078Z,98472.44
2022-08-17T18:56:25.863Z,98474.22
2022-08-17T18:59:04.436Z,98471.25
2022-08-17T19:01:52.688Z,98479.03
2022-08-17T19:04:35.403Z,98479.69
2022-08-17T19:07:24.362Z,98475.75
2022-08-17T19:09:58.099Z,98476.28
2022-08-17T19:12:32.363Z,98480.59
2022-08-17T19:15:01.698Z,98482.59
2022-08-17T19:17:38.610Z,98494.28
2022-08-17T19:20:13.911Z,98494.78
2022-08-17T19:23:01.565Z,98495.03
2022-08-17T19:25:34.862Z,98498.41
2022-08-17T19:28:12.697Z,98500.19
2022-08-17T19:30:51.172Z,98489.75
2022-08-17T19:33:19.454Z,98493.44
2022-08-17T19:36:06.263Z,98492.66
2022-08-17T19:38:48.517Z,98503.22
2022-08-17T19:41:22.904Z,98501.56
2022-08-17T19:44:06.672Z,98501.16
2022-08-17T19:46:48.659Z,98499.34
2022-08-17T19:49:33.258Z,98498.72
2022-08-17T19:52:20.416Z,98498.94
2022-08-17T19:54:57.485Z,98492.81
2022-08-17T19:57:35.124Z,98496.41
2022-08-17T20:00:10.771Z,98495.72
2022-08-17T20:02:47.705Z,98487.59
2022-08-17T20:05:20.988Z,98475.41
2022-08-17T20:07:55.295Z,98474.94
2022-08-17T20:10:31.518Z,98482.53
2022-08-17T20:13:09.173Z,98472.69
2022-08-17T20:15:42.495Z,98473.25
2022-08-17T20:18:19.031Z,98478.81
2022-08-17T20:20:54.898Z,98486.47
2022-08-17T20:23:32.421Z,98490.16
2022-08-17T20:26:10.603Z,98486.91
2022-08-17T20:28:40.301Z,98486.75
2022-08-17T20:31:44.685Z,98489.34
2022-08-17T20:34:36.771Z,98488.44
2022-08-17T20:37:08.811Z,98497.94
2022-08-17T20:39:40.026Z,98496.97
2022-08-17T20:42:13.191Z,98492.94
2022-08-17T20:44:44.521Z,98504.47
2022-08-17T20:47:22.761Z,98510.16
2022-08-17T20:49:58.260Z,98512.16
2022-08-17T20:52:53.861Z,98504.06
2022-08-17T20:55:55.877Z,98510.28
2022-08-17T20:58:53.817Z,98527.22
2022-08-17T21:01:37.305Z,98517.47
2022-08-17T21:04:29.523Z,98515.69
2022-08-17T21:07:29.019Z,98515.59
2022-08-17T21:10:11.298Z,98522.38
2022-08-17T21:12:42.486Z,98526.72
2022-08-17T21:15:28.480Z,98518.75
2022-08-17T21:18:07.493Z,98526.28
2022-08-17T21:20:43.180Z,98530.38
2022-08-17T21:23:42.245Z,98527.00
2022-08-17T21:26:18.639Z,98527.53
2022-08-17T21:29:29.683Z,98526.28
2022-08-17T21:32:10.707Z,98530.66
2022-08-17T21:34:42.419Z,98527.00
2022-08-17T21:37:31.477Z,98526.50
2022-08-17T21:40:21.381Z,98523.91
2022-08-17T21:42:52.718Z,98535.59
2022-08-17T21:45:23.695Z,98539.97
2022-08-17T21:48:07.734Z,98537.19
2022-08-17T21:50:37.095Z,98532.28
2022-08-17T21:53:08.747Z,98532.25
2022-08-17T21:55:37.565Z,98544.09
2022-08-17T21:58:13.790Z,98536.09
2022-08-17T22:00:44.230Z,98544.94
2022-08-17T22:03:25.857Z,98544.69
2022-08-17T22:05:54.012Z,98543.88
2022-08-17T22:08:25.485Z,98551.91
2022-08-17T22:11:02.078Z,98541.84
2022-08-17T22:13:30.221Z,98535.91
2022-08-17T22:16:15.701Z,98547.50
2022-08-17T22:18:58.028Z,98537.94
2022-08-17T22:21:26.128Z,98550.06
2022-08-17T22:24:07.704Z,98544.41
2022-08-17T22:27:00.236Z,98551.13
2022-08-17T22:29:57.287Z,98554.75
2022-08-17T22:32:44.735Z,98554.47
2022-08-17T22:35:35.505Z,98553.16
2022-08-17T22:38:32.333Z,98550.59
2022-08-17T22:41:27.027Z,98564.78
2022-08-17T22:43:57.376Z,98562.22
2022-08-17T22:46:26.649Z,98568.41
2022-08-17T22:48:57.907Z,98567.16
2022-08-17T22:51:30.703Z,98569.22
2022-08-17T22:54:19.445Z,98580.06
2022-08-17T22:57:15.538Z,98571.28
2022-08-17T22:59:50.368Z,98573.09
2022-08-17T23:02:25.824Z,98563.78
2022-08-17T23:04:57.484Z,98567.66
2022-08-17T23:07:25.697Z,98554.97
2022-08-17T23:09:54.847Z,98560.16
2022-08-17T23:12:27.515Z,98564.56
2022-08-17T23:15:01.633Z,98563.50
2022-08-17T23:17:37.201Z,98571.00
2022-08-17T23:20:08.261Z,98574.63
2022-08-17T23:22:37.094Z,98564.56
2022-08-17T23:25:06.416Z,98568.97
2022-08-17T23:27:36.790Z,98557.34
2022-08-17T23:30:05.167Z,98560.16
2022-08-17T23:32:36.647Z,98556.06
2022-08-17T23:35:16.435Z,98557.34
2022-08-17T23:37:44.829Z,98559.66
2022-08-17T23:40:13.139Z,98557.31
2022-08-17T23:42:46.152Z,98554.50
2022-08-17T23:45:14.338Z,98563.78
2022-08-17T23:47:42.399Z,98567.91
2022-08-17T23:50:11.129Z,98564.03
2022-08-17T23:52:41.222Z,98568.34
2022-08-17T23:55:10.399Z,98565.78
2022-08-17T23:57:38.911Z,98578.44
